Terminal Aerodrome Forecast
Issued by NWS

Home | Current Version | Previous Version | Graphics & Text | Print | Product List | Glossary On
Versions: 1 2 3 4 5 6 7 8 9 10 11 12 13 14 15 16 17
000
FTUS43 KMPX 181100
TAFRWF
TAF
KRWF 181120Z 1812/1912 32008KT P6SM SKC
     FM181300 32008KT P6SM OVC025
     FM182100 34004KT P6SM SCT025
     FM190000 16006KT P6SM FEW250
     FM191000 18008KT P6SM BKN120=

USA.gov is the U.S. government's official web portal to all federal, state and local government web resources and services.